sensor_id;sensor_type;location;lat;lon;timestamp;P1;durP1;ratioP1;P2;durP2;ratioP2
10554;SDS011;5326;51.522;7.388;2022-10-13T00:00:52;15.27;;;9.63;;
10554;SDS011;5326;51.522;7.388;2022-10-13T00:03:19;13.30;;;9.20;;
10554;SDS011;5326;51.522;7.388;2022-10-13T00:05:46;14.90;;;9.90;;
10554;SDS011;5326;51.522;7.388;2022-10-13T00:08:15;14.87;;;9.83;;
10554;SDS011;5326;51.522;7.388;2022-10-13T00:10:44;17.87;;;10.03;;
10554;SDS011;5326;51.522;7.388;2022-10-13T00:13:13;13.40;;;9.90;;
10554;SDS011;5326;51.522;7.388;2022-10-13T00:15:41;18.87;;;10.73;;
10554;SDS011;5326;51.522;7.388;2022-10-13T00:18:09;15.27;;;9.17;;
10554;SDS011;5326;51.522;7.388;2022-10-13T00:20:39;16.93;;;9.53;;
10554;SDS011;5326;51.522;7.388;2022-10-13T00:23:06;16.03;;;9.40;;
10554;SDS011;5326;51.522;7.388;2022-10-13T00:25:33;13.37;;;9.67;;
10554;SDS011;5326;51.522;7.388;2022-10-13T00:28:00;14.87;;;10.23;;
10554;SDS011;5326;51.522;7.388;2022-10-13T00:30:27;15.30;;;9.37;;
10554;SDS011;5326;51.522;7.388;2022-10-13T00:32:53;14.47;;;9.13;;
10554;SDS011;5326;51.522;7.388;2022-10-13T00:35:20;12.17;;;9.37;;
10554;SDS011;5326;51.522;7.388;2022-10-13T00:37:46;15.63;;;9.30;;
10554;SDS011;5326;51.522;7.388;2022-10-13T00:40:13;16.20;;;9.47;;
10554;SDS011;5326;51.522;7.388;2022-10-13T00:42:40;15.97;;;9.37;;
10554;SDS011;5326;51.522;7.388;2022-10-13T00:45:26;17.07;;;9.70;;
10554;SDS011;5326;51.522;7.388;2022-10-13T00:47:57;13.80;;;9.50;;
10554;SDS011;5326;51.522;7.388;2022-10-13T00:50:33;16.33;;;9.50;;
10554;SDS011;5326;51.522;7.388;2022-10-13T00:53:01;15.77;;;9.80;;
10554;SDS011;5326;51.522;7.388;2022-10-13T00:55:29;14.73;;;9.47;;
10554;SDS011;5326;51.522;7.388;2022-10-13T00:57:57;12.23;;;9.13;;
10554;SDS011;5326;51.522;7.388;2022-10-13T01:00:30;14.27;;;10.03;;
10554;SDS011;5326;51.522;7.388;2022-10-13T01:02:58;13.57;;;9.27;;
10554;SDS011;5326;51.522;7.388;2022-10-13T01:05:24;16.63;;;9.87;;
10554;SDS011;5326;51.522;7.388;2022-10-13T01:07:51;17.33;;;9.57;;
10554;SDS011;5326;51.522;7.388;2022-10-13T01:10:28;13.50;;;9.70;;
10554;SDS011;5326;51.522;7.388;2022-10-13T01:12:59;17.00;;;10.07;;
10554;SDS011;5326;51.522;7.388;2022-10-13T01:15:41;15.30;;;9.57;;
10554;SDS011;5326;51.522;7.388;2022-10-13T01:31:26;16.30;;;9.83;;
10554;SDS011;5326;51.522;7.388;2022-10-13T01:36:59;18.30;;;9.37;;
10554;SDS011;5326;51.522;7.388;2022-10-13T01:39:34;13.13;;;8.83;;
10554;SDS011;5326;51.522;7.388;2022-10-13T01:42:08;17.00;;;10.50;;
10554;SDS011;5326;51.522;7.388;2022-10-13T01:44:42;17.17;;;9.43;;
10554;SDS011;5326;51.522;7.388;2022-10-13T01:47:12;13.37;;;9.57;;
10554;SDS011;5326;51.522;7.388;2022-10-13T01:49:41;16.97;;;9.90;;
10554;SDS011;5326;51.522;7.388;2022-10-13T01:52:09;15.10;;;10.17;;
10554;SDS011;5326;51.522;7.388;2022-10-13T01:54:38;12.90;;;9.23;;
10554;SDS011;5326;51.522;7.388;2022-10-13T01:57:24;13.13;;;9.40;;
10554;SDS011;5326;51.522;7.388;2022-10-13T01:59:54;15.47;;;10.10;;
10554;SDS011;5326;51.522;7.388;2022-10-13T02:02:23;15.53;;;9.53;;
10554;SDS011;5326;51.522;7.388;2022-10-13T02:04:55;13.20;;;9.07;;
10554;SDS011;5326;51.522;7.388;2022-10-13T02:07:44;18.80;;;10.03;;
10554;SDS011;5326;51.522;7.388;2022-10-13T02:10:19;15.20;;;9.70;;
10554;SDS011;5326;51.522;7.388;2022-10-13T02:12:58;17.87;;;9.67;;
10554;SDS011;5326;51.522;7.388;2022-10-13T02:15:34;14.17;;;9.83;;
10554;SDS011;5326;51.522;7.388;2022-10-13T02:18:02;14.63;;;9.70;;
10554;SDS011;5326;51.522;7.388;2022-10-13T02:20:30;17.93;;;10.33;;
10554;SDS011;5326;51.522;7.388;2022-10-13T02:22:59;16.40;;;10.30;;
10554;SDS011;5326;51.522;7.388;2022-10-13T02:25:28;16.93;;;9.83;;
10554;SDS011;5326;51.522;7.388;2022-10-13T02:27:56;21.30;;;9.90;;
10554;SDS011;5326;51.522;7.388;2022-10-13T02:30:25;16.70;;;9.77;;
10554;SDS011;5326;51.522;7.388;2022-10-13T02:32:54;21.80;;;9.77;;
10554;SDS011;5326;51.522;7.388;2022-10-13T02:35:20;19.33;;;9.17;;
10554;SDS011;5326;51.522;7.388;2022-10-13T02:37:47;15.23;;;10.40;;
10554;SDS011;5326;51.522;7.388;2022-10-13T02:40:14;13.20;;;9.17;;
10554;SDS011;5326;51.522;7.388;2022-10-13T02:42:40;14.07;;;10.00;;
10554;SDS011;5326;51.522;7.388;2022-10-13T02:45:07;14.10;;;9.33;;
10554;SDS011;5326;51.522;7.388;2022-10-13T02:47:34;12.70;;;9.33;;
10554;SDS011;5326;51.522;7.388;2022-10-13T02:50:01;16.40;;;10.63;;
10554;SDS011;5326;51.522;7.388;2022-10-13T02:52:27;17.37;;;9.80;;
10554;SDS011;5326;51.522;7.388;2022-10-13T02:54:54;16.43;;;10.17;;
10554;SDS011;5326;51.522;7.388;2022-10-13T02:57:20;14.77;;;9.93;;
10554;SDS011;5326;51.522;7.388;2022-10-13T02:59:47;16.50;;;10.37;;
10554;SDS011;5326;51.522;7.388;2022-10-13T03:02:14;20.97;;;10.47;;
10554;SDS011;5326;51.522;7.388;2022-10-13T03:04:41;16.27;;;10.03;;
10554;SDS011;5326;51.522;7.388;2022-10-13T03:07:07;12.80;;;9.63;;
10554;SDS011;5326;51.522;7.388;2022-10-13T03:09:34;16.90;;;9.93;;
10554;SDS011;5326;51.522;7.388;2022-10-13T03:12:01;19.13;;;10.33;;
10554;SDS011;5326;51.522;7.388;2022-10-13T03:14:27;16.03;;;10.10;;
10554;SDS011;5326;51.522;7.388;2022-10-13T03:16:54;14.67;;;10.90;;
10554;SDS011;5326;51.522;7.388;2022-10-13T03:19:21;17.97;;;11.17;;
10554;SDS011;5326;51.522;7.388;2022-10-13T03:21:47;15.47;;;9.83;;
10554;SDS011;5326;51.522;7.388;2022-10-13T03:24:14;15.97;;;10.30;;
10554;SDS011;5326;51.522;7.388;2022-10-13T03:26:40;16.57;;;10.30;;
10554;SDS011;5326;51.522;7.388;2022-10-13T03:29:09;15.97;;;8.97;;
10554;SDS011;5326;51.522;7.388;2022-10-13T03:31:38;23.23;;;10.30;;
10554;SDS011;5326;51.522;7.388;2022-10-13T03:34:05;15.53;;;9.80;;
10554;SDS011;5326;51.522;7.388;2022-10-13T03:36:31;18.60;;;9.87;;
10554;SDS011;5326;51.522;7.388;2022-10-13T03:38:58;15.07;;;10.20;;
10554;SDS011;5326;51.522;7.388;2022-10-13T03:41:24;15.37;;;9.73;;
10554;SDS011;5326;51.522;7.388;2022-10-13T03:43:51;16.67;;;9.43;;
10554;SDS011;5326;51.522;7.388;2022-10-13T03:46:17;16.27;;;9.87;;
10554;SDS011;5326;51.522;7.388;2022-10-13T03:48:45;14.50;;;9.60;;
10554;SDS011;5326;51.522;7.388;2022-10-13T03:51:13;15.57;;;9.93;;
10554;SDS011;5326;51.522;7.388;2022-10-13T03:53:41;16.13;;;10.63;;
10554;SDS011;5326;51.522;7.388;2022-10-13T03:56:09;22.17;;;10.77;;
10554;SDS011;5326;51.522;7.388;2022-10-13T03:58:39;15.37;;;9.87;;
10554;SDS011;5326;51.522;7.388;2022-10-13T04:01:07;14.20;;;9.63;;
10554;SDS011;5326;51.522;7.388;2022-10-13T04:03:33;15.53;;;10.23;;
10554;SDS011;5326;51.522;7.388;2022-10-13T04:06:01;13.27;;;8.67;;
10554;SDS011;5326;51.522;7.388;2022-10-13T04:08:29;18.63;;;9.40;;
10554;SDS011;5326;51.522;7.388;2022-10-13T04:10:59;13.37;;;9.77;;
10554;SDS011;5326;51.522;7.388;2022-10-13T04:13:36;15.87;;;9.00;;
10554;SDS011;5326;51.522;7.388;2022-10-13T04:16:04;16.80;;;9.63;;
10554;SDS011;5326;51.522;7.388;2022-10-13T04:18:32;15.97;;;10.07;;
10554;SDS011;5326;51.522;7.388;2022-10-13T04:20:58;12.63;;;8.90;;
10554;SDS011;5326;51.522;7.388;2022-10-13T04:23:25;13.73;;;9.70;;
10554;SDS011;5326;51.522;7.388;2022-10-13T04:25:52;13.43;;;9.77;;
10554;SDS011;5326;51.522;7.388;2022-10-13T04:28:18;17.03;;;10.07;;
10554;SDS011;5326;51.522;7.388;2022-10-13T04:30:45;14.53;;;10.00;;
10554;SDS011;5326;51.522;7.388;2022-10-13T04:33:14;15.63;;;9.47;;
10554;SDS011;5326;51.522;7.388;2022-10-13T04:35:41;14.67;;;9.10;;
10554;SDS011;5326;51.522;7.388;2022-10-13T04:38:08;15.93;;;10.17;;
10554;SDS011;5326;51.522;7.388;2022-10-13T04:40:34;14.57;;;10.17;;
10554;SDS011;5326;51.522;7.388;2022-10-13T04:43:01;19.17;;;9.47;;
10554;SDS011;5326;51.522;7.388;2022-10-13T04:45:28;15.57;;;9.87;;
10554;SDS011;5326;51.522;7.388;2022-10-13T04:47:54;17.47;;;9.40;;
10554;SDS011;5326;51.522;7.388;2022-10-13T04:50:21;15.53;;;9.43;;
10554;SDS011;5326;51.522;7.388;2022-10-13T04:52:47;17.10;;;9.73;;
10554;SDS011;5326;51.522;7.388;2022-10-13T04:55:14;16.80;;;9.93;;
10554;SDS011;5326;51.522;7.388;2022-10-13T04:57:40;13.50;;;9.40;;
10554;SDS011;5326;51.522;7.388;2022-10-13T05:00:07;14.87;;;9.30;;
10554;SDS011;5326;51.522;7.388;2022-10-13T05:02:34;13.67;;;9.30;;
10554;SDS011;5326;51.522;7.388;2022-10-13T05:05:01;18.57;;;9.77;;
10554;SDS011;5326;51.522;7.388;2022-10-13T05:07:28;17.50;;;9.53;;
10554;SDS011;5326;51.522;7.388;2022-10-13T05:09:56;17.90;;;10.13;;
10554;SDS011;5326;51.522;7.388;2022-10-13T05:12:23;16.50;;;9.80;;
10554;SDS011;5326;51.522;7.388;2022-10-13T05:14:49;18.20;;;10.10;;
10554;SDS011;5326;51.522;7.388;2022-10-13T05:17:16;17.47;;;9.60;;
10554;SDS011;5326;51.522;7.388;2022-10-13T05:19:43;17.40;;;10.53;;
10554;SDS011;5326;51.522;7.388;2022-10-13T05:22:09;15.43;;;9.27;;
10554;SDS011;5326;51.522;7.388;2022-10-13T05:24:36;18.43;;;10.53;;
10554;SDS011;5326;51.522;7.388;2022-10-13T05:27:11;16.77;;;9.97;;
10554;SDS011;5326;51.522;7.388;2022-10-13T05:29:38;15.00;;;9.37;;
10554;SDS011;5326;51.522;7.388;2022-10-13T05:32:05;16.20;;;9.70;;
10554;SDS011;5326;51.522;7.388;2022-10-13T05:34:33;18.23;;;9.73;;
10554;SDS011;5326;51.522;7.388;2022-10-13T05:37:00;15.43;;;9.90;;
10554;SDS011;5326;51.522;7.388;2022-10-13T05:39:26;13.20;;;8.90;;
10554;SDS011;5326;51.522;7.388;2022-10-13T05:41:53;22.57;;;10.13;;
10554;SDS011;5326;51.522;7.388;2022-10-13T05:44:20;13.97;;;9.57;;
10554;SDS011;5326;51.522;7.388;2022-10-13T05:46:46;15.87;;;9.83;;
10554;SDS011;5326;51.522;7.388;2022-10-13T05:49:13;17.07;;;9.73;;
10554;SDS011;5326;51.522;7.388;2022-10-13T05:51:40;17.37;;;10.17;;
10554;SDS011;5326;51.522;7.388;2022-10-13T05:54:11;17.40;;;9.57;;
10554;SDS011;5326;51.522;7.388;2022-10-13T05:56:41;14.47;;;9.87;;
10554;SDS011;5326;51.522;7.388;2022-10-13T05:59:13;17.17;;;9.10;;
10554;SDS011;5326;51.522;7.388;2022-10-13T06:01:41;17.77;;;9.77;;
10554;SDS011;5326;51.522;7.388;2022-10-13T06:04:12;18.93;;;9.90;;
10554;SDS011;5326;51.522;7.388;2022-10-13T06:06:46;15.83;;;9.13;;
10554;SDS011;5326;51.522;7.388;2022-10-13T06:09:14;18.60;;;10.13;;
10554;SDS011;5326;51.522;7.388;2022-10-13T06:11:41;13.30;;;9.53;;
10554;SDS011;5326;51.522;7.388;2022-10-13T06:14:07;14.57;;;9.30;;
10554;SDS011;5326;51.522;7.388;2022-10-13T06:16:34;16.50;;;9.00;;
10554;SDS011;5326;51.522;7.388;2022-10-13T06:19:04;12.00;;;9.50;;
10554;SDS011;5326;51.522;7.388;2022-10-13T06:21:32;18.53;;;9.27;;
10554;SDS011;5326;51.522;7.388;2022-10-13T06:24:00;15.73;;;9.27;;
10554;SDS011;5326;51.522;7.388;2022-10-13T06:26:27;13.00;;;8.40;;
10554;SDS011;5326;51.522;7.388;2022-10-13T06:28:53;17.17;;;9.03;;
10554;SDS011;5326;51.522;7.388;2022-10-13T06:31:25;13.27;;;9.07;;
10554;SDS011;5326;51.522;7.388;2022-10-13T06:33:51;21.60;;;9.37;;
10554;SDS011;5326;51.522;7.388;2022-10-13T06:36:18;18.30;;;8.80;;
10554;SDS011;5326;51.522;7.388;2022-10-13T06:38:44;14.03;;;9.03;;
10554;SDS011;5326;51.522;7.388;2022-10-13T06:41:12;15.33;;;9.30;;
10554;SDS011;5326;51.522;7.388;2022-10-13T06:43:39;11.97;;;8.43;;
10554;SDS011;5326;51.522;7.388;2022-10-13T06:46:06;15.73;;;8.77;;
10554;SDS011;5326;51.522;7.388;2022-10-13T06:48:33;15.77;;;8.80;;
10554;SDS011;5326;51.522;7.388;2022-10-13T06:51:07;13.67;;;8.33;;
10554;SDS011;5326;51.522;7.388;2022-10-13T06:53:35;14.77;;;8.10;;
10554;SDS011;5326;51.522;7.388;2022-10-13T06:56:03;20.00;;;8.87;;
10554;SDS011;5326;51.522;7.388;2022-10-13T06:58:30;19.27;;;9.40;;
10554;SDS011;5326;51.522;7.388;2022-10-13T07:00:57;16.13;;;8.27;;
10554;SDS011;5326;51.522;7.388;2022-10-13T07:03:24;13.33;;;8.23;;
10554;SDS011;5326;51.522;7.388;2022-10-13T07:05:51;14.07;;;8.70;;
10554;SDS011;5326;51.522;7.388;2022-10-13T07:08:18;14.43;;;8.57;;
10554;SDS011;5326;51.522;7.388;2022-10-13T07:10:45;15.83;;;8.07;;
10554;SDS011;5326;51.522;7.388;2022-10-13T07:13:11;15.33;;;8.33;;
10554;SDS011;5326;51.522;7.388;2022-10-13T07:15:39;14.07;;;8.63;;
10554;SDS011;5326;51.522;7.388;2022-10-13T07:18:06;16.90;;;9.10;;
10554;SDS011;5326;51.522;7.388;2022-10-13T07:20:32;12.40;;;8.33;;
10554;SDS011;5326;51.522;7.388;2022-10-13T07:22:59;14.83;;;8.37;;
10554;SDS011;5326;51.522;7.388;2022-10-13T07:25:26;12.97;;;9.00;;
10554;SDS011;5326;51.522;7.388;2022-10-13T07:27:52;16.07;;;8.17;;
10554;SDS011;5326;51.522;7.388;2022-10-13T07:30:19;19.30;;;9.93;;
10554;SDS011;5326;51.522;7.388;2022-10-13T07:32:46;11.83;;;8.50;;
10554;SDS011;5326;51.522;7.388;2022-10-13T07:35:12;16.23;;;8.00;;
10554;SDS011;5326;51.522;7.388;2022-10-13T07:37:39;17.30;;;8.57;;
10554;SDS011;5326;51.522;7.388;2022-10-13T07:40:06;17.27;;;7.83;;
10554;SDS011;5326;51.522;7.388;2022-10-13T07:42:33;13.60;;;8.80;;
10554;SDS011;5326;51.522;7.388;2022-10-13T07:45:00;16.27;;;9.03;;
10554;SDS011;5326;51.522;7.388;2022-10-13T07:47:27;15.50;;;8.77;;
10554;SDS011;5326;51.522;7.388;2022-10-13T07:49:53;16.47;;;8.87;;
10554;SDS011;5326;51.522;7.388;2022-10-13T07:52:21;13.70;;;8.70;;
10554;SDS011;5326;51.522;7.388;2022-10-13T07:54:48;19.03;;;8.40;;
10554;SDS011;5326;51.522;7.388;2022-10-13T07:57:15;17.83;;;8.57;;
10554;SDS011;5326;51.522;7.388;2022-10-13T07:59:42;16.47;;;9.30;;
10554;SDS011;5326;51.522;7.388;2022-10-13T08:02:09;13.70;;;8.17;;
10554;SDS011;5326;51.522;7.388;2022-10-13T08:04:35;15.77;;;8.50;;
10554;SDS011;5326;51.522;7.388;2022-10-13T08:07:02;13.17;;;7.70;;
10554;SDS011;5326;51.522;7.388;2022-10-13T08:09:31;13.40;;;8.30;;
10554;SDS011;5326;51.522;7.388;2022-10-13T08:11:58;14.77;;;7.63;;
10554;SDS011;5326;51.522;7.388;2022-10-13T08:14:26;13.40;;;7.63;;
10554;SDS011;5326;51.522;7.388;2022-10-13T08:16:54;17.47;;;8.03;;
10554;SDS011;5326;51.522;7.388;2022-10-13T08:19:21;16.13;;;8.93;;
10554;SDS011;5326;51.522;7.388;2022-10-13T08:21:48;16.83;;;8.47;;
10554;SDS011;5326;51.522;7.388;2022-10-13T08:24:24;21.67;;;7.67;;
10554;SDS011;5326;51.522;7.388;2022-10-13T08:26:51;13.83;;;7.70;;
10554;SDS011;5326;51.522;7.388;2022-10-13T08:29:18;12.47;;;7.43;;
10554;SDS011;5326;51.522;7.388;2022-10-13T08:31:49;20.90;;;8.57;;
10554;SDS011;5326;51.522;7.388;2022-10-13T08:34:19;15.13;;;7.70;;
10554;SDS011;5326;51.522;7.388;2022-10-13T08:36:50;15.67;;;7.90;;
10554;SDS011;5326;51.522;7.388;2022-10-13T08:39:20;17.27;;;8.77;;
10554;SDS011;5326;51.522;7.388;2022-10-13T08:41:47;19.60;;;8.03;;
10554;SDS011;5326;51.522;7.388;2022-10-13T08:47:03;13.30;;;7.73;;
10554;SDS011;5326;51.522;7.388;2022-10-13T08:49:35;12.97;;;7.70;;
10554;SDS011;5326;51.522;7.388;2022-10-13T08:52:02;11.37;;;7.23;;
10554;SDS011;5326;51.522;7.388;2022-10-13T08:54:31;13.97;;;7.97;;
10554;SDS011;5326;51.522;7.388;2022-10-13T08:56:58;17.20;;;7.93;;
10554;SDS011;5326;51.522;7.388;2022-10-13T08:59:26;12.63;;;6.80;;
10554;SDS011;5326;51.522;7.388;2022-10-13T09:01:53;13.43;;;8.33;;
10554;SDS011;5326;51.522;7.388;2022-10-13T09:04:30;21.03;;;14.13;;
10554;SDS011;5326;51.522;7.388;2022-10-13T09:07:02;15.47;;;8.70;;
10554;SDS011;5326;51.522;7.388;2022-10-13T09:09:30;11.57;;;7.67;;
10554;SDS011;5326;51.522;7.388;2022-10-13T09:11:57;16.67;;;7.70;;
10554;SDS011;5326;51.522;7.388;2022-10-13T09:14:24;15.27;;;7.50;;
10554;SDS011;5326;51.522;7.388;2022-10-13T09:16:53;11.50;;;7.90;;
10554;SDS011;5326;51.522;7.388;2022-10-13T09:19:34;18.10;;;8.30;;
10554;SDS011;5326;51.522;7.388;2022-10-13T09:24:39;17.07;;;7.63;;
10554;SDS011;5326;51.522;7.388;2022-10-13T09:27:15;14.00;;;7.50;;
10554;SDS011;5326;51.522;7.388;2022-10-13T09:29:43;13.10;;;7.63;;
10554;SDS011;5326;51.522;7.388;2022-10-13T09:34:47;13.97;;;7.20;;
10554;SDS011;5326;51.522;7.388;2022-10-13T09:40:00;13.60;;;7.20;;
10554;SDS011;5326;51.522;7.388;2022-10-13T09:42:29;14.00;;;7.00;;
10554;SDS011;5326;51.522;7.388;2022-10-13T09:44:58;12.87;;;7.30;;
10554;SDS011;5326;51.522;7.388;2022-10-13T09:47:28;14.47;;;7.37;;
10554;SDS011;5326;51.522;7.388;2022-10-13T09:50:03;11.23;;;7.10;;
10554;SDS011;5326;51.522;7.388;2022-10-13T09:52:41;13.00;;;6.37;;
10554;SDS011;5326;51.522;7.388;2022-10-13T09:58:09;10.47;;;6.73;;
10554;SDS011;5326;51.522;7.388;2022-10-13T10:00:40;14.10;;;6.77;;
10554;SDS011;5326;51.522;7.388;2022-10-13T10:03:26;12.20;;;7.07;;
10554;SDS011;5326;51.522;7.388;2022-10-13T10:06:08;14.47;;;6.87;;
10554;SDS011;5326;51.522;7.388;2022-10-13T10:14:09;11.17;;;6.63;;
10554;SDS011;5326;51.522;7.388;2022-10-13T10:27:56;14.27;;;6.07;;
10554;SDS011;5326;51.522;7.388;2022-10-13T10:30:47;10.73;;;5.60;;
10554;SDS011;5326;51.522;7.388;2022-10-13T10:36:21;12.47;;;6.03;;
10554;SDS011;5326;51.522;7.388;2022-10-13T10:38:59;12.03;;;6.13;;
10554;SDS011;5326;51.522;7.388;2022-10-13T10:44:16;12.00;;;6.40;;
10554;SDS011;5326;51.522;7.388;2022-10-13T10:46:47;14.47;;;6.50;;
10554;SDS011;5326;51.522;7.388;2022-10-13T10:52:02;12.37;;;6.70;;
10554;SDS011;5326;51.522;7.388;2022-10-13T10:54:52;14.93;;;6.50;;
10554;SDS011;5326;51.522;7.388;2022-10-13T11:00:19;12.03;;;5.90;;
10554;SDS011;5326;51.522;7.388;2022-10-13T11:08:29;12.77;;;6.13;;
10554;SDS011;5326;51.522;7.388;2022-10-13T11:16:30;13.47;;;5.87;;
10554;SDS011;5326;51.522;7.388;2022-10-13T11:19:32;10.97;;;6.10;;
10554;SDS011;5326;51.522;7.388;2022-10-13T11:37:33;17.47;;;6.47;;
10554;SDS011;5326;51.522;7.388;2022-10-13T11:48:44;13.90;;;5.70;;
10554;SDS011;5326;51.522;7.388;2022-10-13T11:56:50;11.63;;;5.63;;
10554;SDS011;5326;51.522;7.388;2022-10-13T11:59:19;9.00;;;5.33;;
10554;SDS011;5326;51.522;7.388;2022-10-13T12:01:54;10.23;;;5.50;;
10554;SDS011;5326;51.522;7.388;2022-10-13T12:04:23;9.07;;;4.63;;
10554;SDS011;5326;51.522;7.388;2022-10-13T12:06:59;9.10;;;4.90;;
10554;SDS011;5326;51.522;7.388;2022-10-13T12:09:27;10.33;;;4.30;;
10554;SDS011;5326;51.522;7.388;2022-10-13T12:11:56;13.40;;;4.87;;
10554;SDS011;5326;51.522;7.388;2022-10-13T12:14:26;8.37;;;4.70;;
10554;SDS011;5326;51.522;7.388;2022-10-13T12:16:57;10.33;;;4.83;;
10554;SDS011;5326;51.522;7.388;2022-10-13T12:19:25;7.73;;;4.37;;
10554;SDS011;5326;51.522;7.388;2022-10-13T12:21:54;9.77;;;4.80;;
10554;SDS011;5326;51.522;7.388;2022-10-13T12:24:23;13.40;;;5.20;;
10554;SDS011;5326;51.522;7.388;2022-10-13T12:26:53;9.03;;;5.07;;
10554;SDS011;5326;51.522;7.388;2022-10-13T12:29:23;9.53;;;5.07;;
10554;SDS011;5326;51.522;7.388;2022-10-13T12:31:52;14.00;;;5.10;;
10554;SDS011;5326;51.522;7.388;2022-10-13T12:34:22;7.60;;;4.87;;
10554;SDS011;5326;51.522;7.388;2022-10-13T12:37:32;15.30;;;5.30;;
10554;SDS011;5326;51.522;7.388;2022-10-13T12:39:40;10.10;;;5.13;;
10554;SDS011;5326;51.522;7.388;2022-10-13T12:42:07;11.37;;;5.00;;
10554;SDS011;5326;51.522;7.388;2022-10-13T12:44:36;7.40;;;5.07;;
10554;SDS011;5326;51.522;7.388;2022-10-13T12:47:03;6.20;;;4.73;;
10554;SDS011;5326;51.522;7.388;2022-10-13T12:49:30;13.63;;;4.90;;
10554;SDS011;5326;51.522;7.388;2022-10-13T12:54:36;9.30;;;5.30;;
10554;SDS011;5326;51.522;7.388;2022-10-13T12:57:05;13.37;;;5.07;;
10554;SDS011;5326;51.522;7.388;2022-10-13T12:59:41;10.37;;;5.60;;
10554;SDS011;5326;51.522;7.388;2022-10-13T13:02:23;7.70;;;4.67;;
10554;SDS011;5326;51.522;7.388;2022-10-13T13:04:51;10.47;;;4.80;;
10554;SDS011;5326;51.522;7.388;2022-10-13T13:07:21;13.73;;;5.43;;
10554;SDS011;5326;51.522;7.388;2022-10-13T13:10:00;11.63;;;5.20;;
10554;SDS011;5326;51.522;7.388;2022-10-13T13:12:33;10.63;;;4.63;;
10554;SDS011;5326;51.522;7.388;2022-10-13T13:17:53;15.97;;;6.40;;
10554;SDS011;5326;51.522;7.388;2022-10-13T13:20:26;11.83;;;6.00;;
10554;SDS011;5326;51.522;7.388;2022-10-13T13:22:58;12.83;;;6.30;;
10554;SDS011;5326;51.522;7.388;2022-10-13T13:25:25;10.60;;;7.37;;
10554;SDS011;5326;51.522;7.388;2022-10-13T13:27:51;15.37;;;6.90;;
10554;SDS011;5326;51.522;7.388;2022-10-13T13:30:19;15.67;;;6.70;;
10554;SDS011;5326;51.522;7.388;2022-10-13T13:32:47;18.77;;;7.13;;
10554;SDS011;5326;51.522;7.388;2022-10-13T13:35:14;13.50;;;7.93;;
10554;SDS011;5326;51.522;7.388;2022-10-13T13:37:42;9.07;;;7.13;;
10554;SDS011;5326;51.522;7.388;2022-10-13T13:40:14;13.17;;;6.87;;
10554;SDS011;5326;51.522;7.388;2022-10-13T13:42:43;11.63;;;7.13;;
10554;SDS011;5326;51.522;7.388;2022-10-13T13:45:13;15.30;;;7.57;;
10554;SDS011;5326;51.522;7.388;2022-10-13T13:47:40;12.70;;;7.43;;
10554;SDS011;5326;51.522;7.388;2022-10-13T13:50:26;13.53;;;7.70;;
10554;SDS011;5326;51.522;7.388;2022-10-13T13:52:58;11.70;;;7.63;;
10554;SDS011;5326;51.522;7.388;2022-10-13T13:55:26;20.57;;;12.97;;
10554;SDS011;5326;51.522;7.388;2022-10-13T13:57:54;15.20;;;8.17;;
10554;SDS011;5326;51.522;7.388;2022-10-13T14:00:22;16.43;;;8.73;;
10554;SDS011;5326;51.522;7.388;2022-10-13T14:02:48;12.53;;;8.33;;
10554;SDS011;5326;51.522;7.388;2022-10-13T14:05:15;11.90;;;7.30;;
10554;SDS011;5326;51.522;7.388;2022-10-13T14:07:42;14.80;;;8.30;;
10554;SDS011;5326;51.522;7.388;2022-10-13T14:10:09;12.00;;;7.87;;
10554;SDS011;5326;51.522;7.388;2022-10-13T14:12:36;12.70;;;7.63;;
10554;SDS011;5326;51.522;7.388;2022-10-13T14:15:03;11.93;;;7.53;;
10554;SDS011;5326;51.522;7.388;2022-10-13T14:17:30;22.00;;;9.43;;
10554;SDS011;5326;51.522;7.388;2022-10-13T14:19:56;15.97;;;8.57;;
10554;SDS011;5326;51.522;7.388;2022-10-13T14:22:23;15.07;;;9.63;;
10554;SDS011;5326;51.522;7.388;2022-10-13T14:24:50;14.17;;;7.77;;
10554;SDS011;5326;51.522;7.388;2022-10-13T14:27:17;15.97;;;7.27;;
10554;SDS011;5326;51.522;7.388;2022-10-13T14:29:44;10.50;;;6.53;;
10554;SDS011;5326;51.522;7.388;2022-10-13T14:32:10;12.50;;;6.77;;
10554;SDS011;5326;51.522;7.388;2022-10-13T14:34:37;14.03;;;6.70;;
10554;SDS011;5326;51.522;7.388;2022-10-13T14:37:04;10.60;;;6.33;;
10554;SDS011;5326;51.522;7.388;2022-10-13T14:39:30;16.50;;;7.10;;
10554;SDS011;5326;51.522;7.388;2022-10-13T14:41:57;11.87;;;6.40;;
10554;SDS011;5326;51.522;7.388;2022-10-13T14:44:23;15.93;;;7.70;;
10554;SDS011;5326;51.522;7.388;2022-10-13T14:46:50;17.03;;;9.87;;
10554;SDS011;5326;51.522;7.388;2022-10-13T14:49:16;14.47;;;8.60;;
10554;SDS011;5326;51.522;7.388;2022-10-13T14:51:43;18.23;;;12.70;;
10554;SDS011;5326;51.522;7.388;2022-10-13T14:54:09;15.80;;;11.23;;
10554;SDS011;5326;51.522;7.388;2022-10-13T14:56:36;13.97;;;8.00;;
10554;SDS011;5326;51.522;7.388;2022-10-13T14:59:03;15.50;;;8.57;;
10554;SDS011;5326;51.522;7.388;2022-10-13T15:01:31;15.43;;;8.70;;
10554;SDS011;5326;51.522;7.388;2022-10-13T15:03:59;19.87;;;11.40;;
10554;SDS011;5326;51.522;7.388;2022-10-13T15:06:26;14.23;;;9.27;;
10554;SDS011;5326;51.522;7.388;2022-10-13T15:08:52;14.43;;;9.47;;
10554;SDS011;5326;51.522;7.388;2022-10-13T15:11:20;17.17;;;9.30;;
10554;SDS011;5326;51.522;7.388;2022-10-13T15:13:47;17.97;;;9.30;;
10554;SDS011;5326;51.522;7.388;2022-10-13T15:16:15;17.80;;;9.80;;
10554;SDS011;5326;51.522;7.388;2022-10-13T15:18:46;16.87;;;10.67;;
10554;SDS011;5326;51.522;7.388;2022-10-13T15:21:13;15.37;;;10.03;;
10554;SDS011;5326;51.522;7.388;2022-10-13T15:23:39;13.37;;;9.47;;
10554;SDS011;5326;51.522;7.388;2022-10-13T15:26:06;14.90;;;9.53;;
10554;SDS011;5326;51.522;7.388;2022-10-13T15:28:36;19.87;;;10.10;;
10554;SDS011;5326;51.522;7.388;2022-10-13T15:31:04;17.73;;;10.93;;
10554;SDS011;5326;51.522;7.388;2022-10-13T15:33:31;14.70;;;10.37;;
10554;SDS011;5326;51.522;7.388;2022-10-13T15:35:58;18.13;;;10.83;;
10554;SDS011;5326;51.522;7.388;2022-10-13T15:38:25;14.87;;;10.17;;
10554;SDS011;5326;51.522;7.388;2022-10-13T15:41:00;16.47;;;10.83;;
10554;SDS011;5326;51.522;7.388;2022-10-13T15:43:28;16.43;;;11.13;;
10554;SDS011;5326;51.522;7.388;2022-10-13T15:45:56;22.30;;;10.60;;
10554;SDS011;5326;51.522;7.388;2022-10-13T15:48:25;18.67;;;10.93;;
10554;SDS011;5326;51.522;7.388;2022-10-13T15:50:52;17.60;;;13.90;;
10554;SDS011;5326;51.522;7.388;2022-10-13T15:53:20;22.20;;;14.47;;
10554;SDS011;5326;51.522;7.388;2022-10-13T15:55:48;21.87;;;16.37;;
10554;SDS011;5326;51.522;7.388;2022-10-13T15:58:14;18.97;;;12.80;;
10554;SDS011;5326;51.522;7.388;2022-10-13T16:00:41;20.03;;;12.70;;
10554;SDS011;5326;51.522;7.388;2022-10-13T16:03:15;16.47;;;12.00;;
10554;SDS011;5326;51.522;7.388;2022-10-13T16:05:43;19.27;;;11.63;;
10554;SDS011;5326;51.522;7.388;2022-10-13T16:08:10;18.20;;;12.80;;
10554;SDS011;5326;51.522;7.388;2022-10-13T16:10:38;25.23;;;14.40;;
10554;SDS011;5326;51.522;7.388;2022-10-13T16:13:06;17.87;;;12.87;;
10554;SDS011;5326;51.522;7.388;2022-10-13T16:15:34;18.57;;;12.63;;
10554;SDS011;5326;51.522;7.388;2022-10-13T16:18:00;18.90;;;12.53;;
10554;SDS011;5326;51.522;7.388;2022-10-13T16:20:27;20.60;;;11.93;;
10554;SDS011;5326;51.522;7.388;2022-10-13T16:22:59;17.43;;;12.50;;
10554;SDS011;5326;51.522;7.388;2022-10-13T16:25:27;20.07;;;11.50;;
10554;SDS011;5326;51.522;7.388;2022-10-13T16:27:54;23.00;;;16.90;;
10554;SDS011;5326;51.522;7.388;2022-10-13T16:30:21;24.43;;;13.57;;
10554;SDS011;5326;51.522;7.388;2022-10-13T16:32:47;17.50;;;12.77;;
10554;SDS011;5326;51.522;7.388;2022-10-13T16:35:14;18.57;;;11.83;;
10554;SDS011;5326;51.522;7.388;2022-10-13T16:37:41;18.50;;;12.30;;
10554;SDS011;5326;51.522;7.388;2022-10-13T16:40:08;18.23;;;11.50;;